Churdan, Iowa
Current Conditions -  °F | °C
As of 11:15 AM on Friday 24 Oct 2014 (Local Time) from KCIN Reporting Station
Haze Haze  
Wind Chill: 64°   Ceiling: 1200
Heat Index: 64°   Visibility: 5mi
Dew Point: 59°   Wind: 17mph
Humidity: 83%   Direction: 230°SW
Pressure: 29.92"   Gusts: 24mph
Location:  42.15°N, 94.47°W
Report Text: KCIN 241615Z AUTO 23015G21KT 5SM HZ OVC012 18/15 A2992 RMK AO2
Loading
Personal Weather Stations






























Interactive Weather Map
Tropical Storm Tracking
New forecast layout! Learn more

10-Day Weather Forecast

Advertisements
Track Severe Weather on mobile